createdAt,value
2022-07-26T00:00:24.057Z,19.44
2022-07-26T00:01:24.146Z,19.44
2022-07-26T00:02:25.070Z,19.40
2022-07-26T00:03:24.052Z,19.40
2022-07-26T00:04:24.032Z,19.37
2022-07-26T00:05:24.023Z,19.36
2022-07-26T00:06:23.999Z,19.33
2022-07-26T00:07:24.007Z,19.31
2022-07-26T00:08:23.981Z,19.29
2022-07-26T00:09:23.985Z,19.29
2022-07-26T00:10:23.970Z,19.26
2022-07-26T00:11:23.954Z,19.25
2022-07-26T00:12:23.963Z,19.23
2022-07-26T00:13:23.931Z,19.22
2022-07-26T00:14:23.931Z,19.19
2022-07-26T00:15:23.903Z,19.19
2022-07-26T00:16:23.917Z,19.16
2022-07-26T00:17:23.884Z,19.16
2022-07-26T00:18:23.877Z,19.13
2022-07-26T00:19:23.882Z,19.11
2022-07-26T00:20:23.857Z,19.10
2022-07-26T00:21:23.844Z,19.07
2022-07-26T00:22:23.902Z,19.04
2022-07-26T00:23:23.827Z,19.02
2022-07-26T00:24:23.820Z,19.00
2022-07-26T00:25:23.809Z,18.95
2022-07-26T00:26:23.795Z,18.98
2022-07-26T00:27:23.776Z,18.94
2022-07-26T00:28:23.765Z,18.92
2022-07-26T00:29:23.777Z,18.90
2022-07-26T00:30:23.741Z,18.87
2022-07-26T00:31:23.792Z,18.84
2022-07-26T00:32:23.748Z,18.82
2022-07-26T00:33:23.728Z,18.80
2022-07-26T00:34:23.708Z,18.78
2022-07-26T00:35:23.701Z,18.76
2022-07-26T00:36:23.708Z,18.73
2022-07-26T00:37:23.669Z,18.70
2022-07-26T00:38:23.672Z,18.70
2022-07-26T00:39:23.651Z,18.65
2022-07-26T00:40:23.641Z,18.63
2022-07-26T00:41:23.641Z,18.60
2022-07-26T00:42:23.640Z,18.58
2022-07-26T00:43:23.621Z,18.57
2022-07-26T00:44:23.618Z,18.54
2022-07-26T00:45:23.600Z,18.52
2022-07-26T00:46:23.710Z,18.50
2022-07-26T00:47:23.573Z,18.47
2022-07-26T00:48:23.553Z,18.45
2022-07-26T00:49:23.592Z,18.44
2022-07-26T00:50:23.533Z,18.41
2022-07-26T00:51:23.515Z,18.39
2022-07-26T00:52:23.513Z,18.37
2022-07-26T00:53:23.514Z,18.35
2022-07-26T00:54:23.483Z,18.33
2022-07-26T00:55:23.484Z,18.30
2022-07-26T00:56:23.472Z,18.27
2022-07-26T00:57:23.457Z,18.26
2022-07-26T00:58:23.458Z,18.23
2022-07-26T00:59:23.436Z,18.21
2022-07-26T01:00:23.416Z,18.18
2022-07-26T01:01:23.492Z,18.17
2022-07-26T01:02:23.482Z,18.17
2022-07-26T01:03:23.405Z,18.14
2022-07-26T01:04:24.377Z,18.11
2022-07-26T01:05:23.368Z,18.08
2022-07-26T01:06:27.108Z,18.07
2022-07-26T01:07:23.357Z,18.05
2022-07-26T01:08:23.372Z,18.02
2022-07-26T01:09:23.365Z,18.00
2022-07-26T01:10:23.322Z,17.97
2022-07-26T01:11:23.328Z,17.95
2022-07-26T01:12:23.308Z,17.93
2022-07-26T01:13:23.301Z,17.90
2022-07-26T01:14:23.299Z,17.87
2022-07-26T01:15:23.267Z,17.86
2022-07-26T01:16:23.333Z,17.84
2022-07-26T01:17:23.259Z,17.81
2022-07-26T01:18:23.242Z,17.78
2022-07-26T01:19:23.241Z,17.77
2022-07-26T01:20:23.220Z,17.74
2022-07-26T01:21:23.201Z,17.71
2022-07-26T01:22:23.202Z,17.68
2022-07-26T01:23:23.184Z,17.64
2022-07-26T01:24:23.183Z,17.64
2022-07-26T01:25:23.161Z,17.59
2022-07-26T01:26:23.164Z,17.58
2022-07-26T01:27:23.135Z,17.55
2022-07-26T01:28:23.144Z,17.54
2022-07-26T01:29:23.133Z,17.51
2022-07-26T01:30:24.113Z,17.49
2022-07-26T01:31:23.185Z,17.46
2022-07-26T01:32:23.102Z,17.44
2022-07-26T01:33:23.064Z,17.43
2022-07-26T01:34:23.085Z,17.43
2022-07-26T01:35:23.055Z,17.38
2022-07-26T01:36:23.041Z,17.38
2022-07-26T01:37:23.035Z,17.37
2022-07-26T01:38:23.020Z,17.36
2022-07-26T01:39:23.015Z,17.36
2022-07-26T01:40:22.988Z,17.33
2022-07-26T01:41:37.362Z,17.34
2022-07-26T01:42:24.036Z,17.31
2022-07-26T01:43:22.985Z,17.31
2022-07-26T01:44:22.965Z,17.31
2022-07-26T01:45:22.938Z,17.31
2022-07-26T01:46:22.960Z,17.30
2022-07-26T01:47:22.918Z,17.30
2022-07-26T01:48:22.928Z,17.28
2022-07-26T01:49:22.909Z,17.26
2022-07-26T01:50:22.899Z,17.25
2022-07-26T01:51:22.868Z,17.25
2022-07-26T01:52:22.880Z,17.23
2022-07-26T01:53:22.869Z,17.22
2022-07-26T01:54:24.615Z,17.22
2022-07-26T01:55:22.833Z,17.21
2022-07-26T01:56:22.821Z,17.19
2022-07-26T01:57:22.818Z,17.18
2022-07-26T01:58:22.881Z,17.16
2022-07-26T01:59:22.780Z,17.15
2022-07-26T02:00:22.780Z,17.14
2022-07-26T02:01:38.054Z,17.11
2022-07-26T02:02:23.850Z,17.11
2022-07-26T02:03:22.851Z,17.08
2022-07-26T02:04:22.749Z,17.06
2022-07-26T02:05:22.732Z,17.04
2022-07-26T02:06:22.722Z,17.03
2022-07-26T02:07:22.693Z,17.01
2022-07-26T02:08:22.724Z,17.00
2022-07-26T02:09:22.687Z,16.97
2022-07-26T02:10:22.684Z,16.96
2022-07-26T02:11:22.647Z,16.94
2022-07-26T02:12:22.635Z,16.91
2022-07-26T02:13:22.636Z,16.88
2022-07-26T02:14:25.660Z,16.86
2022-07-26T02:15:22.595Z,16.86
2022-07-26T02:16:22.651Z,16.85
2022-07-26T02:17:22.580Z,16.82
2022-07-26T02:18:22.576Z,16.81
2022-07-26T02:19:22.557Z,16.76
2022-07-26T02:20:22.548Z,16.76
2022-07-26T02:21:22.532Z,16.76
2022-07-26T02:22:22.528Z,16.73
2022-07-26T02:23:22.519Z,16.71
2022-07-26T02:24:22.497Z,16.68
2022-07-26T02:25:22.499Z,16.66
2022-07-26T02:26:22.479Z,16.66
2022-07-26T02:27:22.470Z,16.63
2022-07-26T02:28:22.470Z,16.63
2022-07-26T02:29:22.458Z,16.60
2022-07-26T02:30:22.439Z,16.60
2022-07-26T02:31:22.513Z,16.57
2022-07-26T02:32:23.421Z,16.56
2022-07-26T02:33:22.409Z,16.53
2022-07-26T02:34:22.390Z,16.52
2022-07-26T02:35:22.434Z,16.50
2022-07-26T02:36:22.379Z,16.49
2022-07-26T02:37:22.362Z,16.49
2022-07-26T02:38:22.360Z,16.46
2022-07-26T02:39:22.342Z,16.48
2022-07-26T02:40:22.342Z,16.48
2022-07-26T02:41:22.323Z,16.45
2022-07-26T02:42:22.302Z,16.45
2022-07-26T02:43:22.310Z,16.45
2022-07-26T02:44:22.283Z,16.45
2022-07-26T02:45:22.284Z,16.46
2022-07-26T02:46:22.342Z,16.45
2022-07-26T02:47:22.254Z,16.46
2022-07-26T02:48:22.254Z,16.48
2022-07-26T02:49:22.234Z,16.48
2022-07-26T02:50:22.227Z,16.50
2022-07-26T02:51:22.212Z,16.50
2022-07-26T02:52:22.196Z,16.52
2022-07-26T02:53:22.199Z,16.57
2022-07-26T02:54:22.185Z,16.57
2022-07-26T02:55:22.171Z,16.60
2022-07-26T02:56:22.155Z,16.63
2022-07-26T02:57:22.147Z,16.64
2022-07-26T02:58:22.137Z,16.67
2022-07-26T02:59:22.119Z,16.68
2022-07-26T03:00:22.123Z,16.68
2022-07-26T03:01:22.156Z,16.71
2022-07-26T03:02:22.168Z,16.73
2022-07-26T03:03:22.088Z,16.76
2022-07-26T03:04:22.070Z,16.78
2022-07-26T03:05:22.061Z,16.79
2022-07-26T03:06:22.038Z,16.82
2022-07-26T03:07:22.041Z,16.85
2022-07-26T03:08:22.039Z,16.88
2022-07-26T03:09:22.010Z,16.89
2022-07-26T03:10:22.000Z,16.91
2022-07-26T03:11:21.992Z,16.94
2022-07-26T03:12:21.979Z,16.96
2022-07-26T03:13:21.991Z,16.98
2022-07-26T03:14:21.960Z,17.00
2022-07-26T03:15:21.963Z,17.03
2022-07-26T03:16:24.873Z,17.06
2022-07-26T03:17:22.944Z,17.11
2022-07-26T03:18:21.913Z,17.15
2022-07-26T03:19:21.924Z,17.18
2022-07-26T03:20:21.895Z,17.21
2022-07-26T03:21:21.895Z,17.25
2022-07-26T03:22:21.875Z,17.26
2022-07-26T03:23:21.865Z,17.28
2022-07-26T03:24:21.865Z,17.31
2022-07-26T03:25:21.852Z,17.33
2022-07-26T03:26:21.833Z,17.34
2022-07-26T03:27:21.823Z,17.36
2022-07-26T03:28:21.816Z,17.36
2022-07-26T03:29:21.808Z,17.37
2022-07-26T03:30:24.656Z,17.37
2022-07-26T03:31:21.867Z,17.37
2022-07-26T03:32:21.781Z,17.38
2022-07-26T03:33:21.786Z,17.38
2022-07-26T03:34:21.748Z,17.37
2022-07-26T03:35:21.757Z,17.37
2022-07-26T03:36:21.727Z,17.36
2022-07-26T03:37:21.726Z,17.34
2022-07-26T03:38:21.699Z,17.34
2022-07-26T03:39:21.707Z,17.33
2022-07-26T03:40:21.690Z,17.33
2022-07-26T03:41:21.721Z,17.33
2022-07-26T03:42:21.660Z,17.31
2022-07-26T03:43:23.362Z,17.33
2022-07-26T03:44:21.667Z,17.30
2022-07-26T03:45:21.630Z,17.30
2022-07-26T03:46:21.707Z,17.28
2022-07-26T03:47:21.621Z,17.28
2022-07-26T03:48:21.594Z,17.26
2022-07-26T03:49:21.661Z,17.26
2022-07-26T03:50:21.613Z,17.23
2022-07-26T03:51:21.568Z,17.23
2022-07-26T03:52:21.563Z,17.22
2022-07-26T03:53:21.551Z,17.19
2022-07-26T03:54:21.550Z,17.19
2022-07-26T03:55:21.534Z,17.18
2022-07-26T03:56:21.528Z,17.18
2022-07-26T03:57:21.510Z,17.15
2022-07-26T03:58:21.497Z,17.14
2022-07-26T03:59:21.495Z,17.14
2022-07-26T04:00:21.465Z,17.11
2022-07-26T04:01:21.499Z,17.11
2022-07-26T04:02:21.563Z,17.07
2022-07-26T04:03:21.434Z,17.06
2022-07-26T04:04:25.129Z,17.06
2022-07-26T04:05:22.762Z,17.04
2022-07-26T04:06:23.112Z,17.03
2022-07-26T04:07:21.415Z,17.04
2022-07-26T04:08:21.385Z,17.01
2022-07-26T04:09:21.397Z,17.01
2022-07-26T04:10:21.408Z,17.01
2022-07-26T04:11:21.365Z,17.01
2022-07-26T04:12:21.345Z,17.00
2022-07-26T04:13:21.336Z,17.01
2022-07-26T04:14:21.329Z,17.01
2022-07-26T04:15:21.359Z,17.00
2022-07-26T04:16:21.367Z,17.01
2022-07-26T04:17:21.335Z,17.01
2022-07-26T04:18:21.291Z,17.03
2022-07-26T04:19:21.288Z,17.04
2022-07-26T04:20:21.259Z,17.04
2022-07-26T04:21:21.251Z,17.04
2022-07-26T04:22:21.230Z,17.06
2022-07-26T04:23:21.233Z,17.07
2022-07-26T04:24:21.219Z,17.06
2022-07-26T04:25:21.212Z,17.08
2022-07-26T04:26:21.194Z,17.08
2022-07-26T04:27:21.202Z,17.12
2022-07-26T04:28:21.180Z,17.11
2022-07-26T04:29:21.173Z,17.14
2022-07-26T04:30:21.151Z,17.14
2022-07-26T04:31:21.229Z,17.15
2022-07-26T04:32:21.125Z,17.18
2022-07-26T04:33:21.123Z,17.19
2022-07-26T04:34:21.122Z,17.21
2022-07-26T04:35:21.104Z,17.21
2022-07-26T04:36:21.170Z,17.23
2022-07-26T04:37:21.083Z,17.23
2022-07-26T04:38:21.065Z,17.25
2022-07-26T04:39:21.064Z,17.26
2022-07-26T04:40:21.649Z,17.28
2022-07-26T04:41:21.035Z,17.28
2022-07-26T04:42:21.165Z,17.28
2022-07-26T04:43:21.019Z,17.30
2022-07-26T04:44:21.007Z,17.31
2022-07-26T04:45:20.996Z,17.33
2022-07-26T04:46:21.052Z,17.33
2022-07-26T04:47:20.977Z,17.33
2022-07-26T04:48:20.957Z,17.36
2022-07-26T04:49:20.958Z,17.36
2022-07-26T04:50:20.957Z,17.36
2022-07-26T04:51:20.920Z,17.38
2022-07-26T04:52:20.910Z,17.40
2022-07-26T04:53:20.910Z,17.41
2022-07-26T04:54:20.899Z,17.43
2022-07-26T04:55:20.886Z,17.44
2022-07-26T04:56:20.870Z,17.46
2022-07-26T04:57:20.858Z,17.48
2022-07-26T04:58:20.839Z,17.49
2022-07-26T04:59:21.973Z,17.49
2022-07-26T05:00:22.532Z,17.51
2022-07-26T05:01:20.881Z,17.52
2022-07-26T05:02:20.915Z,17.54
2022-07-26T05:03:20.870Z,17.55
2022-07-26T05:04:20.782Z,17.56
2022-07-26T05:05:20.776Z,17.56
2022-07-26T05:06:20.765Z,17.58
2022-07-26T05:07:20.753Z,17.62
2022-07-26T05:08:20.734Z,17.63
2022-07-26T05:09:20.809Z,17.64
2022-07-26T05:10:20.712Z,17.64
2022-07-26T05:11:20.704Z,17.66
2022-07-26T05:12:20.689Z,17.68
2022-07-26T05:13:23.104Z,17.68
2022-07-26T05:14:21.698Z,17.70
2022-07-26T05:15:20.660Z,17.70
2022-07-26T05:16:20.662Z,17.71
2022-07-26T05:17:20.679Z,17.71
2022-07-26T05:18:20.635Z,17.74
2022-07-26T05:19:20.634Z,17.72
2022-07-26T05:20:20.597Z,17.75
2022-07-26T05:21:20.623Z,17.77
2022-07-26T05:22:20.577Z,17.77
2022-07-26T05:23:20.647Z,17.79
2022-07-26T05:24:20.549Z,17.78
2022-07-26T05:25:20.558Z,17.81
2022-07-26T05:26:20.530Z,17.84
2022-07-26T05:27:20.518Z,17.84
2022-07-26T05:28:20.508Z,17.86
2022-07-26T05:29:20.500Z,17.86
2022-07-26T05:30:20.492Z,17.90
2022-07-26T05:31:20.552Z,17.90
2022-07-26T05:32:20.668Z,17.93
2022-07-26T05:33:20.462Z,17.95
2022-07-26T05:34:20.441Z,17.96
2022-07-26T05:35:20.453Z,17.99
2022-07-26T05:36:20.512Z,18.00
2022-07-26T05:37:20.435Z,18.02
2022-07-26T05:38:20.401Z,18.05
2022-07-26T05:39:20.389Z,18.07
2022-07-26T05:40:20.394Z,18.10
2022-07-26T05:41:20.363Z,18.12
2022-07-26T05:42:20.355Z,18.14
2022-07-26T05:43:20.344Z,18.18
2022-07-26T05:44:20.333Z,18.23
2022-07-26T05:45:20.336Z,18.27
2022-07-26T05:46:20.365Z,18.29
2022-07-26T05:47:20.304Z,18.32
2022-07-26T05:48:20.286Z,18.36
2022-07-26T05:49:20.365Z,18.41
2022-07-26T05:50:20.290Z,18.45
2022-07-26T05:51:20.257Z,18.50
2022-07-26T05:52:20.257Z,18.54
2022-07-26T05:53:20.246Z,18.60
2022-07-26T05:54:20.226Z,18.63
2022-07-26T05:55:20.238Z,18.66
2022-07-26T05:56:20.207Z,18.72
2022-07-26T05:57:20.196Z,18.78
2022-07-26T05:58:20.188Z,18.84
2022-07-26T05:59:20.179Z,18.88
2022-07-26T06:00:20.179Z,18.91
2022-07-26T06:01:20.169Z,18.98
2022-07-26T06:02:20.185Z,19.02
2022-07-26T06:03:20.147Z,19.07
2022-07-26T06:04:20.147Z,19.11
2022-07-26T06:05:20.141Z,19.18
2022-07-26T06:06:20.093Z,19.21
2022-07-26T06:07:20.090Z,19.25
2022-07-26T06:08:20.073Z,19.28
2022-07-26T06:09:20.063Z,19.31
2022-07-26T06:10:20.069Z,19.37
2022-07-26T06:11:20.047Z,19.37
2022-07-26T06:12:20.032Z,19.41
2022-07-26T06:13:20.026Z,19.44
2022-07-26T06:14:20.005Z,19.46
2022-07-26T06:15:20.013Z,19.48
2022-07-26T06:16:19.985Z,19.50
2022-07-26T06:17:20.102Z,19.51
2022-07-26T06:18:19.968Z,19.55
2022-07-26T06:19:19.956Z,19.58
2022-07-26T06:20:19.957Z,19.61
2022-07-26T06:21:19.936Z,19.63
2022-07-26T06:22:19.928Z,19.66
2022-07-26T06:23:33.879Z,19.69
2022-07-26T06:24:20.888Z,19.71
2022-07-26T06:25:19.936Z,19.73
2022-07-26T06:26:19.877Z,19.76
2022-07-26T06:27:19.878Z,19.77
2022-07-26T06:28:19.859Z,19.78
2022-07-26T06:29:19.850Z,19.80
2022-07-26T06:30:19.849Z,19.81
2022-07-26T06:31:19.902Z,19.81
2022-07-26T06:32:19.811Z,19.84
2022-07-26T06:33:19.800Z,19.84
2022-07-26T06:34:19.789Z,19.87
2022-07-26T06:35:19.781Z,19.87
2022-07-26T06:36:19.770Z,19.88
2022-07-26T06:37:19.762Z,19.88
2022-07-26T06:38:19.750Z,19.92
2022-07-26T06:39:19.740Z,19.94
2022-07-26T06:40:19.733Z,19.96
2022-07-26T06:41:19.714Z,19.98
2022-07-26T06:42:19.721Z,20.01
2022-07-26T06:43:19.692Z,20.02
2022-07-26T06:44:19.674Z,20.03
2022-07-26T06:45:19.708Z,20.06
2022-07-26T06:46:19.770Z,20.08
2022-07-26T06:47:19.654Z,20.11
2022-07-26T06:48:19.643Z,20.13
2022-07-26T06:49:22.615Z,20.16
2022-07-26T06:50:20.883Z,20.18
2022-07-26T06:51:20.626Z,20.20
2022-07-26T06:52:19.681Z,20.24
2022-07-26T06:53:19.598Z,20.28
2022-07-26T06:54:19.580Z,20.31
2022-07-26T06:55:19.576Z,20.33
2022-07-26T06:56:19.567Z,20.36
2022-07-26T06:57:19.548Z,20.39
2022-07-26T06:58:19.537Z,20.42
2022-07-26T06:59:19.529Z,20.47
2022-07-26T07:00:19.521Z,20.48
2022-07-26T07:01:58.119Z,20.51
2022-07-26T07:02:20.588Z,20.52
2022-07-26T07:03:19.482Z,20.55
2022-07-26T07:04:19.557Z,20.57
2022-07-26T07:05:19.545Z,20.58
2022-07-26T07:06:19.462Z,20.61
2022-07-26T07:07:19.444Z,20.62
2022-07-26T07:08:19.433Z,20.64
2022-07-26T07:09:19.422Z,20.64
2022-07-26T07:10:19.425Z,20.64
2022-07-26T07:11:19.422Z,20.67
2022-07-26T07:12:19.384Z,20.67
2022-07-26T07:13:19.374Z,20.69
2022-07-26T07:14:19.364Z,20.69
2022-07-26T07:15:19.354Z,20.72
2022-07-26T07:16:19.425Z,20.72
2022-07-26T07:17:20.385Z,20.73
2022-07-26T07:18:19.318Z,20.74
2022-07-26T07:19:19.316Z,20.76
2022-07-26T07:20:19.296Z,20.77
2022-07-26T07:21:19.309Z,20.79
2022-07-26T07:22:19.277Z,20.82
2022-07-26T07:23:19.269Z,20.85
2022-07-26T07:24:19.249Z,20.87
2022-07-26T07:25:22.012Z,20.89
2022-07-26T07:26:20.256Z,20.91
2022-07-26T07:27:19.224Z,20.95
2022-07-26T07:28:19.221Z,20.97
2022-07-26T07:29:19.218Z,20.98
2022-07-26T07:30:19.180Z,21.01
2022-07-26T07:31:19.279Z,21.06
2022-07-26T07:32:19.799Z,21.07
2022-07-26T07:33:22.635Z,21.07
2022-07-26T07:34:19.704Z,21.09
2022-07-26T07:35:19.353Z,21.09
2022-07-26T07:36:19.134Z,21.12
2022-07-26T07:37:19.939Z,21.14
2022-07-26T07:38:19.175Z,21.17
2022-07-26T07:39:19.104Z,21.21
2022-07-26T07:40:19.089Z,21.25
2022-07-26T07:41:19.126Z,21.28
2022-07-26T07:42:19.244Z,21.31
2022-07-26T07:43:19.054Z,21.34
2022-07-26T07:44:19.046Z,21.37
2022-07-26T07:45:19.037Z,21.40
2022-07-26T07:46:19.058Z,21.44
2022-07-26T07:47:19.016Z,21.44
2022-07-26T07:48:18.997Z,21.43
2022-07-26T07:49:19.071Z,21.43
2022-07-26T07:50:18.977Z,21.44
2022-07-26T07:51:18.970Z,21.47
2022-07-26T07:52:18.956Z,21.47
2022-07-26T07:53:18.948Z,21.50
2022-07-26T07:54:18.928Z,21.52
2022-07-26T07:55:40.712Z,21.54
2022-07-26T07:56:19.930Z,21.56
2022-07-26T07:57:18.900Z,21.61
2022-07-26T07:58:19.135Z,21.64
2022-07-26T07:59:18.882Z,21.68
2022-07-26T08:00:18.981Z,21.71
2022-07-26T08:01:18.935Z,21.80
2022-07-26T08:02:19.701Z,21.84
2022-07-26T08:03:19.273Z,21.83
2022-07-26T08:04:18.932Z,21.80
2022-07-26T08:05:18.824Z,21.75
2022-07-26T08:06:18.804Z,21.71
2022-07-26T08:07:18.814Z,21.64
2022-07-26T08:08:18.849Z,21.58
2022-07-26T08:09:18.776Z,21.52
2022-07-26T08:10:18.895Z,21.44
2022-07-26T08:11:18.766Z,21.42
2022-07-26T08:12:18.758Z,21.62
2022-07-26T08:13:21.136Z,22.21
2022-07-26T08:14:18.832Z,22.73
2022-07-26T08:15:19.472Z,23.10
2022-07-26T08:16:18.795Z,23.22
2022-07-26T08:17:18.707Z,23.27
2022-07-26T08:18:22.329Z,23.27
2022-07-26T08:19:18.693Z,23.20
2022-07-26T08:20:18.778Z,23.13
2022-07-26T08:21:18.664Z,23.01
2022-07-26T08:22:18.681Z,22.79
2022-07-26T08:23:18.623Z,22.60
2022-07-26T08:24:18.683Z,22.57
2022-07-26T08:25:18.602Z,22.55
2022-07-26T08:26:18.703Z,22.52
2022-07-26T08:27:18.593Z,22.51
2022-07-26T08:28:38.084Z,22.51
2022-07-26T08:29:19.555Z,22.57
2022-07-26T08:30:18.591Z,22.55
2022-07-26T08:31:18.551Z,22.49
2022-07-26T08:32:18.695Z,22.46
2022-07-26T08:33:18.516Z,22.55
2022-07-26T08:34:18.645Z,22.70
2022-07-26T08:35:19.771Z,22.82
2022-07-26T08:36:18.548Z,22.79
2022-07-26T08:37:18.738Z,23.19
2022-07-26T08:38:18.657Z,23.65
2022-07-26T08:39:18.458Z,24.03
2022-07-26T08:40:18.576Z,24.30
2022-07-26T08:41:18.691Z,24.42
2022-07-26T08:42:22.805Z,24.35
2022-07-26T08:43:18.410Z,24.15
2022-07-26T08:44:18.514Z,24.02
2022-07-26T08:45:18.392Z,23.90
2022-07-26T08:46:24.362Z,23.76
2022-07-26T08:47:35.083Z,23.57
2022-07-26T08:48:19.361Z,23.43
2022-07-26T08:49:18.448Z,23.32
2022-07-26T08:50:18.463Z,23.16
2022-07-26T08:51:18.323Z,23.02
2022-07-26T08:52:18.336Z,22.95
2022-07-26T08:53:18.305Z,22.97
2022-07-26T08:54:18.482Z,22.85
2022-07-26T08:55:18.286Z,22.75
2022-07-26T08:56:18.497Z,22.70
2022-07-26T08:57:18.276Z,22.62
2022-07-26T08:58:18.358Z,22.55
2022-07-26T08:59:21.347Z,22.43
2022-07-26T09:00:18.369Z,22.35
2022-07-26T09:01:18.339Z,22.45
2022-07-26T09:02:18.389Z,22.57
2022-07-26T09:03:18.233Z,22.62
2022-07-26T09:04:30.574Z,22.60
2022-07-26T09:05:19.180Z,22.62
2022-07-26T09:06:18.301Z,22.60
2022-07-26T09:07:18.173Z,22.49
2022-07-26T09:08:18.364Z,22.35
2022-07-26T09:09:18.143Z,22.20
2022-07-26T09:10:18.235Z,22.05
2022-07-26T09:11:18.124Z,21.99
2022-07-26T09:12:18.267Z,22.02
2022-07-26T09:13:18.100Z,22.07
2022-07-26T09:14:18.167Z,22.20
2022-07-26T09:15:18.076Z,22.18
2022-07-26T09:16:18.176Z,22.12
2022-07-26T09:17:18.067Z,22.12
2022-07-26T09:18:18.245Z,22.05
2022-07-26T09:19:18.039Z,21.98
2022-07-26T09:20:18.151Z,21.90
2022-07-26T09:21:19.019Z,22.03
2022-07-26T09:22:18.429Z,22.33
2022-07-26T09:23:18.002Z,22.61
2022-07-26T09:24:18.158Z,22.68
2022-07-26T09:25:17.980Z,22.91
2022-07-26T09:26:18.042Z,23.32
2022-07-26T09:27:17.961Z,23.65
2022-07-26T09:28:18.060Z,23.84
2022-07-26T09:29:17.952Z,23.93
2022-07-26T09:30:18.044Z,23.76
2022-07-26T09:31:17.991Z,23.61
2022-07-26T09:32:18.179Z,23.75
2022-07-26T09:33:17.892Z,23.72
2022-07-26T09:34:18.046Z,23.58
2022-07-26T09:35:49.995Z,23.42
2022-07-26T09:36:18.919Z,23.25
2022-07-26T09:37:17.870Z,23.07
2022-07-26T09:38:17.907Z,22.83
2022-07-26T09:39:17.836Z,22.60
2022-07-26T09:40:18.908Z,22.39
2022-07-26T09:41:18.622Z,22.22
2022-07-26T09:42:28.676Z,22.06
2022-07-26T09:43:24.031Z,22.12
2022-07-26T09:44:18.783Z,22.31
2022-07-26T09:45:17.769Z,22.77
2022-07-26T09:46:17.910Z,23.27
2022-07-26T09:47:17.770Z,23.63
2022-07-26T09:48:17.839Z,23.97
2022-07-26T09:49:17.775Z,24.34
2022-07-26T09:50:18.236Z,24.87
2022-07-26T09:51:17.712Z,25.20
2022-07-26T09:52:18.813Z,25.38
2022-07-26T09:53:17.714Z,25.67
2022-07-26T09:54:17.777Z,25.92
2022-07-26T09:55:17.675Z,26.01
2022-07-26T09:56:17.895Z,25.69
2022-07-26T09:57:17.653Z,25.27
2022-07-26T09:58:17.808Z,24.68
2022-07-26T09:59:17.640Z,24.27
2022-07-26T10:00:17.666Z,24.45
2022-07-26T10:01:17.673Z,24.93
2022-07-26T10:02:17.630Z,25.42
2022-07-26T10:03:17.666Z,25.64
2022-07-26T10:04:17.692Z,25.77
2022-07-26T10:05:17.571Z,25.95
2022-07-26T10:06:17.708Z,25.95
2022-07-26T10:07:17.571Z,25.60
2022-07-26T10:08:17.771Z,24.98
2022-07-26T10:09:17.532Z,24.53
2022-07-26T10:10:17.692Z,24.45
2022-07-26T10:11:17.525Z,24.77
2022-07-26T10:12:17.642Z,24.84
2022-07-26T10:13:17.515Z,24.87
2022-07-26T10:14:17.614Z,25.03
2022-07-26T10:15:17.525Z,25.20
2022-07-26T10:16:17.885Z,25.21
2022-07-26T10:17:17.458Z,25.10
2022-07-26T10:18:18.406Z,25.06
2022-07-26T10:19:17.442Z,24.99
2022-07-26T10:20:19.339Z,24.90
2022-07-26T10:21:18.439Z,24.73
2022-07-26T10:22:17.559Z,24.53
2022-07-26T10:23:17.402Z,24.49
2022-07-26T10:24:17.528Z,24.87
2022-07-26T10:25:17.398Z,24.99
2022-07-26T10:26:18.153Z,24.68
2022-07-26T10:27:17.362Z,24.40
2022-07-26T10:28:17.461Z,24.32
2022-07-26T10:29:17.333Z,24.37
2022-07-26T10:30:17.583Z,24.40
2022-07-26T10:31:17.347Z,24.50
2022-07-26T10:32:17.584Z,24.60
2022-07-26T10:33:17.306Z,24.81
2022-07-26T10:34:17.394Z,24.95
2022-07-26T10:35:17.273Z,25.00
2022-07-26T10:36:17.330Z,24.90
2022-07-26T10:37:17.260Z,24.69
2022-07-26T10:38:17.477Z,24.52
2022-07-26T10:39:17.234Z,24.43
2022-07-26T10:40:17.438Z,24.40
2022-07-26T10:41:17.223Z,24.43
2022-07-26T10:42:17.303Z,24.57
2022-07-26T10:43:40.029Z,24.81
2022-07-26T10:44:18.310Z,24.98
2022-07-26T10:45:17.173Z,24.95
2022-07-26T10:46:17.303Z,24.84
2022-07-26T10:47:17.161Z,24.81
2022-07-26T10:48:17.339Z,25.00
2022-07-26T10:49:17.154Z,25.14
2022-07-26T10:50:17.203Z,25.18
2022-07-26T10:51:17.105Z,25.20
2022-07-26T10:52:17.265Z,25.54
2022-07-26T10:53:17.095Z,25.64
2022-07-26T10:54:17.219Z,25.52
2022-07-26T10:55:17.074Z,25.32
2022-07-26T10:56:17.147Z,25.05
2022-07-26T10:57:17.059Z,24.78
2022-07-26T10:58:18.076Z,24.62
2022-07-26T10:59:28.043Z,24.49
2022-07-26T11:00:18.153Z,24.28
2022-07-26T11:01:17.129Z,24.12
2022-07-26T11:02:17.458Z,23.97
2022-07-26T11:03:17.034Z,23.87
2022-07-26T11:04:17.099Z,23.79
2022-07-26T11:05:16.970Z,23.83
2022-07-26T11:06:17.089Z,23.79
2022-07-26T11:07:17.162Z,23.79
2022-07-26T11:08:17.062Z,23.84
2022-07-26T11:09:16.923Z,23.90
2022-07-26T11:10:16.985Z,23.93
2022-07-26T11:11:16.903Z,23.95
2022-07-26T11:12:17.042Z,24.05
2022-07-26T11:13:16.886Z,24.10
2022-07-26T11:14:18.047Z,24.12
2022-07-26T11:15:16.867Z,24.12
2022-07-26T11:16:16.981Z,24.20
2022-07-26T11:17:16.857Z,24.28
2022-07-26T11:18:16.850Z,24.40
2022-07-26T11:19:16.826Z,24.49
2022-07-26T11:20:16.948Z,24.60
2022-07-26T11:21:16.802Z,24.76
2022-07-26T11:22:17.009Z,24.87
2022-07-26T11:23:16.789Z,24.99
2022-07-26T11:24:16.934Z,25.06
2022-07-26T11:25:16.770Z,25.13
2022-07-26T11:26:16.883Z,25.20
2022-07-26T11:27:16.740Z,25.30
2022-07-26T11:28:16.934Z,25.36
2022-07-26T11:29:17.803Z,25.35
2022-07-26T11:30:17.782Z,25.21
2022-07-26T11:31:16.780Z,25.05
2022-07-26T11:32:18.111Z,24.84
2022-07-26T11:33:16.674Z,24.67
2022-07-26T11:34:16.794Z,24.87
2022-07-26T11:35:16.658Z,25.42
2022-07-26T11:36:16.757Z,25.76
2022-07-26T11:37:16.637Z,26.10
2022-07-26T11:38:16.886Z,26.58
2022-07-26T11:39:16.606Z,27.04
2022-07-26T11:40:16.748Z,27.29
2022-07-26T11:41:16.598Z,27.25
2022-07-26T11:42:16.689Z,26.92
2022-07-26T11:43:16.579Z,26.73
2022-07-26T11:44:16.775Z,26.35
2022-07-26T11:45:16.563Z,25.88
2022-07-26T11:46:16.682Z,25.52
2022-07-26T11:47:16.546Z,25.23
2022-07-26T11:48:16.942Z,25.30
2022-07-26T11:49:16.575Z,25.97
2022-07-26T11:50:22.770Z,26.57
2022-07-26T11:51:17.514Z,26.95
2022-07-26T11:52:25.075Z,27.29
2022-07-26T11:53:17.559Z,27.65
2022-07-26T11:54:16.806Z,27.72
2022-07-26T11:55:16.474Z,27.60
2022-07-26T11:56:16.587Z,27.36
2022-07-26T11:57:16.454Z,27.41
2022-07-26T11:58:17.063Z,27.87
2022-07-26T11:59:16.438Z,28.02
2022-07-26T12:00:17.178Z,27.90
2022-07-26T12:01:16.409Z,27.47
2022-07-26T12:02:16.790Z,26.91
2022-07-26T12:03:16.389Z,26.37
2022-07-26T12:04:17.127Z,26.01
2022-07-26T12:05:16.601Z,25.73
2022-07-26T12:06:16.614Z,25.50
2022-07-26T12:07:16.373Z,25.30
2022-07-26T12:08:16.522Z,25.14
2022-07-26T12:09:16.450Z,24.99
2022-07-26T12:10:16.420Z,24.80
2022-07-26T12:11:16.313Z,24.61
2022-07-26T12:12:16.366Z,24.43
2022-07-26T12:13:16.444Z,24.25
2022-07-26T12:14:18.552Z,24.12
2022-07-26T12:15:16.267Z,23.98
2022-07-26T12:16:16.405Z,23.79
2022-07-26T12:17:16.325Z,23.58
2022-07-26T12:18:16.446Z,23.35
2022-07-26T12:19:16.237Z,23.17
2022-07-26T12:20:17.390Z,23.00
2022-07-26T12:21:16.221Z,22.86
2022-07-26T12:22:17.339Z,22.73
2022-07-26T12:23:16.207Z,22.62
2022-07-26T12:24:16.249Z,22.49
2022-07-26T12:25:16.189Z,22.36
2022-07-26T12:26:16.240Z,22.25
2022-07-26T12:27:16.140Z,22.18
2022-07-26T12:28:16.146Z,22.15
2022-07-26T12:29:16.157Z,22.12
2022-07-26T12:30:16.159Z,22.05
2022-07-26T12:31:16.200Z,22.03
2022-07-26T12:32:16.094Z,22.06
2022-07-26T12:33:16.091Z,22.07
2022-07-26T12:34:16.244Z,22.06
2022-07-26T12:35:16.064Z,22.02
2022-07-26T12:36:16.205Z,22.05
2022-07-26T12:37:16.046Z,22.15
2022-07-26T12:38:16.055Z,22.24
2022-07-26T12:39:16.117Z,22.30
2022-07-26T12:40:16.027Z,22.28
2022-07-26T12:41:16.011Z,22.27
2022-07-26T12:42:21.066Z,22.25
2022-07-26T12:43:16.988Z,22.33
2022-07-26T12:44:16.755Z,22.47
2022-07-26T12:45:15.978Z,22.52
2022-07-26T12:46:16.112Z,22.46
2022-07-26T12:47:15.939Z,22.49
2022-07-26T12:48:16.030Z,22.60
2022-07-26T12:49:15.962Z,22.64
2022-07-26T12:50:16.060Z,22.58
2022-07-26T12:51:15.903Z,22.57
2022-07-26T12:52:15.905Z,22.60